KHSV

Huntsville International Airport

Airport
ICAO code
KHSV
IATA Code
HSV
Summary
ICAO Region
NAM
ICAO Territory
Location

Madison, Alabama

Serving
Huntsville
Elevation
629 ft
Coordinates
34° 38' 14" N , 86° 46' 30" W
KCC
Airport LOS
Parallel Runway Operation
Metar
KHSV 181742Z VRB06KT 10SM SCT021 26/19 A3006 RMK AO2 T02560194 $

Huntsville International Airport, also known as Carl T. Jones Field, is an airport located 9 nm southwest of the central business district of Huntsville, a city in Madison County, Alabama, United States.

Airport map

Aerial View

SKYbrary Partners:

Safety knowledge contributed by: